createdAt,value
2023-05-10T05:30:03.297Z,0.50
2023-05-10T05:31:09.123Z,0.50
2023-05-10T05:32:04.291Z,0.50
2023-05-10T05:33:03.138Z,0.50
2023-05-10T05:34:04.484Z,0.50
2023-05-10T05:35:02.874Z,0.50
2023-05-10T05:36:02.755Z,0.50
2023-05-10T05:37:02.667Z,0.50
2023-05-10T05:38:02.600Z,0.50
2023-05-10T05:39:04.087Z,0.42
2023-05-10T05:40:02.310Z,0.38
2023-05-10T05:41:02.184Z,0.34
2023-05-10T05:42:02.072Z,0.34
2023-05-10T05:43:02.009Z,0.34
2023-05-10T05:44:02.548Z,0.34
2023-05-10T05:45:01.834Z,0.34
2023-05-10T05:46:01.674Z,0.36
2023-05-10T05:47:01.573Z,0.40
2023-05-10T05:48:02.077Z,0.44
2023-05-10T05:49:01.387Z,0.48
2023-05-10T05:50:01.292Z,0.50
2023-05-10T05:51:01.213Z,0.50
2023-05-10T05:52:01.104Z,0.50
2023-05-10T05:53:01.099Z,0.50
2023-05-10T05:54:00.905Z,0.50
2023-05-10T05:55:00.837Z,0.50
2023-05-10T05:56:00.751Z,0.50
2023-05-10T05:57:01.523Z,0.50
2023-05-10T05:58:00.558Z,0.50
2023-05-10T05:59:00.472Z,0.50
2023-05-10T06:00:00.426Z,0.50
2023-05-10T06:01:00.273Z,0.50
2023-05-10T06:02:01.025Z,0.50
2023-05-10T06:03:00.324Z,0.50
2023-05-10T06:04:00.070Z,0.50
2023-05-10T06:04:59.917Z,0.50
2023-05-10T06:05:59.796Z,0.50
2023-05-10T06:07:00.509Z,0.50
2023-05-10T06:07:59.609Z,0.50
2023-05-10T06:08:59.622Z,0.51
2023-05-10T06:09:59.412Z,0.50
2023-05-10T06:11:01.003Z,0.51
2023-05-10T06:11:59.272Z,0.50
2023-05-10T06:12:59.184Z,0.50
2023-05-10T06:13:59.497Z,0.50
2023-05-10T06:14:58.948Z,0.51
2023-05-10T06:15:58.869Z,0.50
2023-05-10T06:16:58.815Z,0.50
2023-05-10T06:17:58.734Z,0.51
2023-05-10T06:18:58.557Z,0.51
2023-05-10T06:19:58.485Z,0.50
2023-05-10T06:20:58.373Z,0.51
2023-05-10T06:21:58.252Z,0.50
2023-05-10T06:22:58.173Z,0.50
2023-05-10T06:23:58.102Z,0.50
2023-05-10T06:24:58.012Z,0.50
2023-05-10T06:25:57.928Z,0.50
2023-05-10T06:26:57.851Z,0.52
2023-05-10T06:27:57.756Z,0.52
2023-05-10T06:28:59.540Z,0.53
2023-05-10T06:30:09.206Z,0.53
2023-05-10T06:30:57.451Z,0.44
2023-05-10T06:31:57.351Z,0.34
2023-05-10T06:32:57.305Z,0.34
2023-05-10T06:33:57.189Z,0.34
2023-05-10T06:34:57.151Z,0.34
2023-05-10T06:35:57.142Z,0.34
2023-05-10T06:36:56.983Z,0.34
2023-05-10T06:37:56.911Z,0.34
2023-05-10T06:38:58.536Z,0.34
2023-05-10T06:39:56.814Z,0.34
2023-05-10T06:40:56.773Z,0.34
2023-05-10T06:41:56.625Z,0.34
2023-05-10T06:42:56.556Z,0.34
2023-05-10T06:43:56.753Z,0.34
2023-05-10T06:44:56.291Z,0.34
2023-05-10T06:45:56.209Z,0.34
2023-05-10T06:46:57.047Z,0.34
2023-05-10T06:47:56.569Z,0.34
2023-05-10T06:48:55.812Z,0.34
2023-05-10T06:49:55.695Z,0.34
2023-05-10T06:50:56.409Z,0.34
2023-05-10T06:51:55.464Z,0.34
2023-05-10T06:52:55.334Z,0.34
2023-05-10T06:53:55.237Z,0.34
2023-05-10T06:54:55.138Z,0.34
2023-05-10T06:55:54.958Z,0.34
2023-05-10T06:56:54.845Z,0.34
2023-05-10T06:57:54.737Z,0.37
2023-05-10T06:58:54.643Z,0.43
2023-05-10T06:59:54.503Z,0.50
2023-05-10T07:00:54.463Z,0.50
2023-05-10T07:01:54.268Z,0.50
2023-05-10T07:02:54.140Z,0.50
2023-05-10T07:03:54.030Z,0.50
2023-05-10T07:04:53.921Z,0.51
2023-05-10T07:05:54.516Z,0.50
2023-05-10T07:06:54.009Z,0.50
2023-05-10T07:07:53.506Z,0.50
2023-05-10T07:08:53.388Z,0.50
2023-05-10T07:09:53.957Z,0.51
2023-05-10T07:10:53.166Z,0.51
2023-05-10T07:11:53.030Z,0.50
2023-05-10T07:12:52.984Z,0.50
2023-05-10T07:13:52.774Z,0.50
2023-05-10T07:14:52.658Z,0.50
2023-05-10T07:15:52.550Z,0.55
2023-05-10T07:16:54.950Z,0.56
2023-05-10T07:17:53.199Z,0.58
2023-05-10T07:18:52.336Z,0.62
2023-05-10T07:19:52.576Z,0.68
2023-05-10T07:20:52.119Z,0.74
2023-05-10T07:21:51.979Z,0.73
2023-05-10T07:22:51.888Z,0.61
2023-05-10T07:23:51.839Z,0.52
2023-05-10T07:24:51.703Z,0.50
2023-05-10T07:25:51.601Z,0.50
2023-05-10T07:27:02.544Z,0.54
2023-05-10T07:27:51.375Z,0.54
2023-05-10T07:28:51.279Z,0.55
2023-05-10T07:29:51.150Z,0.57
2023-05-10T07:30:51.105Z,0.59
2023-05-10T07:31:50.973Z,0.60
2023-05-10T07:32:50.805Z,0.57
2023-05-10T07:34:01.603Z,0.56
2023-05-10T07:34:50.522Z,0.56
2023-05-10T07:35:50.441Z,0.56
2023-05-10T07:36:51.083Z,0.57
2023-05-10T07:37:57.156Z,0.56
2023-05-10T07:38:50.025Z,0.56
2023-05-10T07:39:49.911Z,0.57
2023-05-10T07:40:50.455Z,0.57
2023-05-10T07:41:50.566Z,0.58
2023-05-10T07:42:49.556Z,0.61
2023-05-10T07:43:49.707Z,0.68
2023-05-10T07:44:49.404Z,0.80
2023-05-10T07:45:49.212Z,0.84
2023-05-10T07:46:49.071Z,0.87
2023-05-10T07:47:48.998Z,0.90
2023-05-10T07:48:48.896Z,0.93
2023-05-10T07:49:50.538Z,0.96
2023-05-10T07:50:49.514Z,0.96
2023-05-10T07:51:50.511Z,0.84
2023-05-10T07:52:48.739Z,0.74
2023-05-10T07:53:48.675Z,0.64
2023-05-10T07:54:50.492Z,0.56
2023-05-10T07:55:48.389Z,0.53
2023-05-10T07:56:48.367Z,0.50
2023-05-10T07:57:48.146Z,0.48
2023-05-10T07:58:48.021Z,0.45
2023-05-10T07:59:47.897Z,0.50
2023-05-10T08:00:50.553Z,0.50
2023-05-10T08:01:47.694Z,0.50
2023-05-10T08:02:47.700Z,0.50
2023-05-10T08:03:48.176Z,0.50
2023-05-10T08:04:48.448Z,0.49
2023-05-10T08:05:47.357Z,0.47
2023-05-10T08:06:47.318Z,0.50
2023-05-10T08:07:50.025Z,0.54
2023-05-10T08:08:47.130Z,0.64
2023-05-10T08:09:47.586Z,0.73
2023-05-10T08:10:46.983Z,0.79
2023-05-10T08:11:46.755Z,0.75
2023-05-10T08:12:46.628Z,0.73
2023-05-10T08:13:46.525Z,0.76
2023-05-10T08:14:46.396Z,0.84
2023-05-10T08:15:46.297Z,0.91
2023-05-10T08:16:46.150Z,1.01
2023-05-10T08:17:46.033Z,1.09
2023-05-10T08:18:46.001Z,1.11
2023-05-10T08:19:45.776Z,1.11
2023-05-10T08:20:46.667Z,1.11
2023-05-10T08:21:45.559Z,1.07
2023-05-10T08:22:45.498Z,1.01
2023-05-10T08:23:45.352Z,0.93
2023-05-10T08:24:45.142Z,0.82
2023-05-10T08:25:45.101Z,0.80
2023-05-10T08:26:44.904Z,0.74
2023-05-10T08:27:44.954Z,0.58
2023-05-10T08:28:44.803Z,0.48
2023-05-10T08:29:50.182Z,0.48
2023-05-10T08:30:45.549Z,0.45
2023-05-10T08:31:44.600Z,0.41
2023-05-10T08:32:44.358Z,0.37
2023-05-10T08:33:44.885Z,0.34
2023-05-10T08:34:44.114Z,0.34
2023-05-10T08:35:43.948Z,0.42
2023-05-10T08:36:43.832Z,0.51
2023-05-10T08:37:43.708Z,0.54
2023-05-10T08:38:44.599Z,0.54
2023-05-10T08:39:44.462Z,0.54
2023-05-10T08:40:43.343Z,0.57
2023-05-10T08:41:43.281Z,0.66
2023-05-10T08:42:43.092Z,0.83
2023-05-10T08:43:42.980Z,1.35
2023-05-10T08:44:49.435Z,1.64
2023-05-10T08:45:42.776Z,1.65
2023-05-10T08:46:42.688Z,1.67
2023-05-10T08:47:42.606Z,1.65
2023-05-10T08:48:43.390Z,1.66
2023-05-10T08:49:42.293Z,1.71
2023-05-10T08:50:50.080Z,1.84
2023-05-10T08:51:43.811Z,1.66
2023-05-10T08:52:41.979Z,1.71
2023-05-10T08:53:41.831Z,1.77
2023-05-10T08:54:41.699Z,1.86
2023-05-10T08:55:42.106Z,1.66
2023-05-10T08:56:43.030Z,1.73
2023-05-10T08:57:41.420Z,1.89
2023-05-10T08:58:41.235Z,2.12
2023-05-10T08:59:41.127Z,2.53
2023-05-10T09:00:42.012Z,2.57
2023-05-10T09:01:41.062Z,2.47
2023-05-10T09:02:43.572Z,2.29
2023-05-10T09:03:40.711Z,1.87
2023-05-10T09:04:40.582Z,1.72
2023-05-10T09:05:40.401Z,1.59
2023-05-10T09:06:40.287Z,1.61
2023-05-10T09:07:41.148Z,1.62
2023-05-10T09:08:40.046Z,1.63
2023-05-10T09:09:39.908Z,1.62
2023-05-10T09:10:39.789Z,1.65
2023-05-10T09:11:40.501Z,1.72
2023-05-10T09:12:40.746Z,1.86
2023-05-10T09:13:39.405Z,2.14
2023-05-10T09:14:39.437Z,2.34
2023-05-10T09:15:39.182Z,2.39
2023-05-10T09:16:39.088Z,2.46
2023-05-10T09:17:38.968Z,2.81
2023-05-10T09:18:38.933Z,3.17
2023-05-10T09:19:40.512Z,3.41
2023-05-10T09:20:38.683Z,3.70
2023-05-10T09:21:38.605Z,4.06
2023-05-10T09:22:39.508Z,4.25
2023-05-10T09:23:38.485Z,4.40
2023-05-10T09:24:38.416Z,4.29
2023-05-10T09:25:38.515Z,3.90
2023-05-10T09:26:38.311Z,3.72
2023-05-10T09:27:38.220Z,3.40
2023-05-10T09:28:38.150Z,3.17
2023-05-10T09:29:38.171Z,3.18
2023-05-10T09:30:39.196Z,3.39
2023-05-10T09:31:39.731Z,3.77
2023-05-10T09:32:37.942Z,3.90
2023-05-10T09:33:38.577Z,4.40
2023-05-10T09:34:38.443Z,4.56
2023-05-10T09:35:42.672Z,4.65
2023-05-10T09:36:38.592Z,4.65
2023-05-10T09:37:37.539Z,4.68
2023-05-10T09:38:37.362Z,4.75
2023-05-10T09:39:38.188Z,4.67
2023-05-10T09:40:38.002Z,4.75
2023-05-10T09:41:36.930Z,4.93
2023-05-10T09:42:39.540Z,5.29
2023-05-10T09:43:37.670Z,4.69
2023-05-10T09:44:37.470Z,4.85
2023-05-10T09:45:38.511Z,5.16
2023-05-10T09:46:36.517Z,5.74
2023-05-10T09:47:36.434Z,6.70
2023-05-10T09:48:36.358Z,6.64
2023-05-10T09:49:36.250Z,4.84
2023-05-10T09:50:36.201Z,3.38
2023-05-10T09:51:36.916Z,2.75
2023-05-10T09:52:41.095Z,2.65
2023-05-10T09:53:35.951Z,2.66
2023-05-10T09:54:35.822Z,2.73
2023-05-10T09:55:35.728Z,2.97
2023-05-10T09:56:35.573Z,3.52
2023-05-10T09:57:35.467Z,4.41
2023-05-10T09:58:36.004Z,4.70
2023-05-10T09:59:35.177Z,4.97
2023-05-10T10:00:35.075Z,5.35
2023-05-10T10:01:35.037Z,5.57
2023-05-10T10:02:35.015Z,5.98
2023-05-10T10:03:34.869Z,6.29
2023-05-10T10:04:34.845Z,6.78
2023-05-10T10:05:34.773Z,7.08
2023-05-10T10:06:34.668Z,7.18
2023-05-10T10:07:34.596Z,7.36
2023-05-10T10:08:34.547Z,7.49
2023-05-10T10:09:34.469Z,7.94
2023-05-10T10:10:34.449Z,8.01
2023-05-10T10:11:34.349Z,8.18
2023-05-10T10:12:34.287Z,8.21
2023-05-10T10:13:34.223Z,7.80
2023-05-10T10:14:34.159Z,8.03
2023-05-10T10:15:34.548Z,8.54
2023-05-10T10:16:34.047Z,8.78
2023-05-10T10:17:33.972Z,8.70
2023-05-10T10:18:34.011Z,8.71
2023-05-10T10:19:33.801Z,9.05
2023-05-10T10:20:33.750Z,9.09
2023-05-10T10:21:33.675Z,9.44
2023-05-10T10:22:33.598Z,9.63
2023-05-10T10:23:33.541Z,10.07
2023-05-10T10:24:33.493Z,10.35
2023-05-10T10:25:33.409Z,10.40
2023-05-10T10:26:33.327Z,10.84
2023-05-10T10:27:33.252Z,10.90
2023-05-10T10:28:33.183Z,11.09
2023-05-10T10:29:33.105Z,11.26
2023-05-10T10:30:33.051Z,12.25
2023-05-10T10:31:33.008Z,12.29
2023-05-10T10:32:32.932Z,12.69
2023-05-10T10:33:32.846Z,12.57
2023-05-10T10:34:32.757Z,11.69
2023-05-10T10:35:32.725Z,11.41
2023-05-10T10:36:32.637Z,11.71
2023-05-10T10:37:32.535Z,12.00
2023-05-10T10:38:32.466Z,12.15
2023-05-10T10:39:32.392Z,12.22
2023-05-10T10:40:34.636Z,12.48
2023-05-10T10:41:32.205Z,12.79
2023-05-10T10:42:33.070Z,12.82
2023-05-10T10:43:31.954Z,12.91
2023-05-10T10:44:31.868Z,13.01
2023-05-10T10:45:31.703Z,13.27
2023-05-10T10:46:31.645Z,13.59
2023-05-10T10:47:31.493Z,13.83
2023-05-10T10:48:31.365Z,13.81
2023-05-10T10:49:31.210Z,13.95
2023-05-10T10:50:31.103Z,14.07
2023-05-10T10:51:30.989Z,14.17
2023-05-10T10:52:30.929Z,14.23
2023-05-10T10:53:30.737Z,14.83
2023-05-10T10:54:30.629Z,15.29
2023-05-10T10:55:30.526Z,14.79
2023-05-10T10:56:30.458Z,14.62
2023-05-10T10:57:30.385Z,15.05
2023-05-10T10:58:30.301Z,16.09
2023-05-10T10:59:30.241Z,16.28
2023-05-10T11:00:30.214Z,15.43
2023-05-10T11:01:30.289Z,15.60
2023-05-10T11:02:31.359Z,15.98
2023-05-10T11:03:30.043Z,16.15
2023-05-10T11:04:30.008Z,15.91
2023-05-10T11:05:29.914Z,15.92
2023-05-10T11:06:29.830Z,15.35
2023-05-10T11:07:29.786Z,15.29
2023-05-10T11:08:29.748Z,15.93
2023-05-10T11:09:29.606Z,15.85
2023-05-10T11:10:29.548Z,16.22
2023-05-10T11:11:29.475Z,16.29
2023-05-10T11:12:29.385Z,16.34
2023-05-10T11:13:29.314Z,16.62
2023-05-10T11:14:29.245Z,16.62
2023-05-10T11:15:29.187Z,16.63
2023-05-10T11:16:29.149Z,16.74
2023-05-10T11:17:29.114Z,16.83
2023-05-10T11:18:28.968Z,17.00
2023-05-10T11:19:28.853Z,17.05
2023-05-10T11:20:28.797Z,17.17
2023-05-10T11:21:28.873Z,17.21
2023-05-10T11:22:28.643Z,17.04
2023-05-10T11:23:28.561Z,17.14
2023-05-10T11:24:28.489Z,16.81
2023-05-10T11:25:28.417Z,16.99
2023-05-10T11:26:28.332Z,16.93
2023-05-10T11:27:28.260Z,17.24
2023-05-10T11:28:28.195Z,17.65
2023-05-10T11:29:28.127Z,17.38
2023-05-10T11:30:28.041Z,17.54
2023-05-10T11:31:28.086Z,17.40
2023-05-10T11:32:27.914Z,17.19
2023-05-10T11:33:27.816Z,17.26
2023-05-10T11:34:27.731Z,16.29
2023-05-10T11:35:27.666Z,15.33
2023-05-10T11:36:27.601Z,14.48
2023-05-10T11:37:27.511Z,13.50
2023-05-10T11:38:27.458Z,11.70
2023-05-10T11:39:27.376Z,11.42
2023-05-10T11:40:27.293Z,11.70
2023-05-10T11:41:27.227Z,11.16
2023-05-10T11:42:27.144Z,10.34
2023-05-10T11:43:27.083Z,10.48
2023-05-10T11:44:27.009Z,9.92
2023-05-10T11:45:26.924Z,9.96
2023-05-10T11:46:26.914Z,9.77
2023-05-10T11:47:26.820Z,9.53
2023-05-10T11:48:26.715Z,9.20
2023-05-10T11:49:26.643Z,8.91
2023-05-10T11:50:26.559Z,8.71
2023-05-10T11:51:26.508Z,8.92
2023-05-10T11:52:27.015Z,9.07
2023-05-10T11:53:26.356Z,9.33
2023-05-10T11:54:26.264Z,9.31
2023-05-10T11:55:26.192Z,9.25
2023-05-10T11:56:26.124Z,9.12
2023-05-10T11:57:26.052Z,9.30
2023-05-10T11:58:25.966Z,9.23
2023-05-10T11:59:25.890Z,9.35
2023-05-10T12:00:25.820Z,9.55
2023-05-10T12:01:25.746Z,9.78
2023-05-10T12:02:25.760Z,10.01
2023-05-10T12:03:25.754Z,10.24
2023-05-10T12:04:25.544Z,10.66
2023-05-10T12:05:25.434Z,10.68
2023-05-10T12:06:25.368Z,10.78
2023-05-10T12:07:25.292Z,10.90
2023-05-10T12:08:25.226Z,10.90
2023-05-10T12:09:39.434Z,10.81
2023-05-10T12:10:26.042Z,10.82
2023-05-10T12:11:24.894Z,10.84
2023-05-10T12:12:24.775Z,10.96
2023-05-10T12:13:24.668Z,11.14
2023-05-10T12:14:24.542Z,11.14
2023-05-10T12:15:24.489Z,11.06
2023-05-10T12:16:24.381Z,11.13
2023-05-10T12:17:24.200Z,11.04
2023-05-10T12:18:24.078Z,13.04
2023-05-10T12:19:23.932Z,13.19
2023-05-10T12:20:23.832Z,13.00
2023-05-10T12:21:23.702Z,13.36
2023-05-10T12:22:23.597Z,13.92
2023-05-10T12:23:23.458Z,13.97
2023-05-10T12:24:23.365Z,14.18
2023-05-10T12:25:23.307Z,14.13
2023-05-10T12:26:23.200Z,14.55
2023-05-10T12:27:23.105Z,14.62
2023-05-10T12:28:23.024Z,14.63
2023-05-10T12:29:22.933Z,14.65
2023-05-10T12:30:22.854Z,14.88
2023-05-10T12:31:22.866Z,15.10
2023-05-10T12:32:22.700Z,14.91
2023-05-10T12:33:22.701Z,15.48
2023-05-10T12:34:22.533Z,15.45
2023-05-10T12:35:22.446Z,15.50
2023-05-10T12:36:22.371Z,15.70
2023-05-10T12:37:22.286Z,15.74
2023-05-10T12:38:22.204Z,15.84
2023-05-10T12:39:22.126Z,15.81
2023-05-10T12:40:22.047Z,16.53
2023-05-10T12:41:22.151Z,16.72
2023-05-10T12:42:21.886Z,17.43
2023-05-10T12:43:21.818Z,17.86
2023-05-10T12:44:21.764Z,18.60
2023-05-10T12:45:21.653Z,19.09
2023-05-10T12:46:21.597Z,19.71
2023-05-10T12:47:21.505Z,20.20
2023-05-10T12:48:21.435Z,20.19
2023-05-10T12:49:21.360Z,19.84
2023-05-10T12:50:21.266Z,19.24
2023-05-10T12:51:21.261Z,19.41
2023-05-10T12:52:21.120Z,19.49
2023-05-10T12:53:21.038Z,19.77
2023-05-10T12:54:20.974Z,19.58
2023-05-10T12:55:20.879Z,19.73
2023-05-10T12:56:20.787Z,19.94
2023-05-10T12:57:20.707Z,19.93
2023-05-10T12:58:34.313Z,20.09
2023-05-10T12:59:21.499Z,20.12
2023-05-10T13:00:20.378Z,20.12
2023-05-10T13:01:20.302Z,20.26
2023-05-10T13:02:20.154Z,20.58
2023-05-10T13:03:20.027Z,20.76
2023-05-10T13:04:19.933Z,20.94
2023-05-10T13:05:19.783Z,20.88
2023-05-10T13:06:19.651Z,21.10
2023-05-10T13:07:19.539Z,21.31
2023-05-10T13:08:19.409Z,20.83
2023-05-10T13:09:19.291Z,20.73
2023-05-10T13:10:19.496Z,20.81
2023-05-10T13:11:19.059Z,20.50
2023-05-10T13:12:18.927Z,20.65
2023-05-10T13:13:18.813Z,20.60
2023-05-10T13:14:18.686Z,20.48
2023-05-10T13:15:18.578Z,20.25
2023-05-10T13:16:18.556Z,20.22
2023-05-10T13:17:18.543Z,20.38
2023-05-10T13:18:18.413Z,20.21
2023-05-10T13:19:18.365Z,20.00
2023-05-10T13:20:18.408Z,19.85
2023-05-10T13:21:18.106Z,20.08
2023-05-10T13:22:25.606Z,20.14
2023-05-10T13:23:18.906Z,20.16
2023-05-10T13:24:17.765Z,20.01
2023-05-10T13:25:17.658Z,19.71
2023-05-10T13:26:17.518Z,19.78
2023-05-10T13:27:17.401Z,19.28
2023-05-10T13:28:17.291Z,19.03
2023-05-10T13:29:18.014Z,18.62
2023-05-10T13:30:18.271Z,18.46
2023-05-10T13:31:17.004Z,18.20
2023-05-10T13:32:16.783Z,18.09
2023-05-10T13:33:16.663Z,18.10
2023-05-10T13:34:16.548Z,18.22
2023-05-10T13:35:16.462Z,17.77
2023-05-10T13:36:16.290Z,17.32
2023-05-10T13:37:16.170Z,17.39
2023-05-10T13:38:16.061Z,17.01
2023-05-10T13:39:16.012Z,16.85
2023-05-10T13:40:16.046Z,16.47
2023-05-10T13:41:15.825Z,16.34
2023-05-10T13:42:15.746Z,16.31
2023-05-10T13:43:15.659Z,16.05
2023-05-10T13:44:15.598Z,15.63
2023-05-10T13:45:15.885Z,15.89
2023-05-10T13:46:15.460Z,15.69
2023-05-10T13:47:15.336Z,15.68
2023-05-10T13:48:15.257Z,15.69
2023-05-10T13:49:15.191Z,15.44
2023-05-10T13:50:15.116Z,15.08
2023-05-10T13:51:15.046Z,14.94
2023-05-10T13:52:14.957Z,14.98
2023-05-10T13:53:14.883Z,14.71
2023-05-10T13:54:14.882Z,14.84
2023-05-10T13:55:14.725Z,15.08
2023-05-10T13:56:14.645Z,14.45
2023-05-10T13:57:14.571Z,14.91
2023-05-10T13:58:14.474Z,14.54
2023-05-10T13:59:14.395Z,14.37
2023-05-10T14:00:14.315Z,14.41
2023-05-10T14:01:14.323Z,14.18
2023-05-10T14:02:14.221Z,14.48
2023-05-10T14:03:14.111Z,14.07
2023-05-10T14:04:14.010Z,13.81
2023-05-10T14:05:14.136Z,13.89
2023-05-10T14:06:13.853Z,13.94
2023-05-10T14:07:13.777Z,13.81
2023-05-10T14:08:13.715Z,13.93
2023-05-10T14:09:13.621Z,13.65
2023-05-10T14:10:13.548Z,13.61
2023-05-10T14:11:13.466Z,13.65
2023-05-10T14:12:13.392Z,13.65
2023-05-10T14:13:13.393Z,13.50
2023-05-10T14:14:13.252Z,13.07
2023-05-10T14:15:13.159Z,12.33
2023-05-10T14:16:13.104Z,11.45
2023-05-10T14:17:13.095Z,10.53
2023-05-10T14:18:12.924Z,9.34
2023-05-10T14:19:12.854Z,8.82
2023-05-10T14:20:12.789Z,8.08
2023-05-10T14:21:12.713Z,7.55
2023-05-10T14:22:12.648Z,7.28
2023-05-10T14:23:12.606Z,6.92
2023-05-10T14:24:12.507Z,6.59
2023-05-10T14:25:12.429Z,6.47
2023-05-10T14:26:12.347Z,6.49
2023-05-10T14:27:12.278Z,6.31
2023-05-10T14:28:12.252Z,6.03
2023-05-10T14:29:12.757Z,5.39
2023-05-10T14:30:12.077Z,5.24
2023-05-10T14:31:11.997Z,5.17
2023-05-10T14:32:11.968Z,5.14
2023-05-10T14:33:11.873Z,4.61
2023-05-10T14:34:11.770Z,4.35
2023-05-10T14:35:13.988Z,4.23
2023-05-10T14:36:11.568Z,4.49
2023-05-10T14:37:11.458Z,4.28
2023-05-10T14:38:11.333Z,4.04
2023-05-10T14:39:11.206Z,4.15
2023-05-10T14:40:11.071Z,3.99
2023-05-10T14:41:11.970Z,3.67
2023-05-10T14:42:10.829Z,3.55
2023-05-10T14:43:10.672Z,3.37
2023-05-10T14:44:10.555Z,3.50
2023-05-10T14:45:10.416Z,3.32
2023-05-10T14:46:10.332Z,3.08
2023-05-10T14:47:12.057Z,2.93
2023-05-10T14:48:10.025Z,2.91
2023-05-10T14:49:09.898Z,2.84
2023-05-10T14:50:09.775Z,2.76
2023-05-10T14:51:09.666Z,2.56
2023-05-10T14:52:09.593Z,2.54
2023-05-10T14:53:09.525Z,2.44
2023-05-10T14:54:09.465Z,2.32
2023-05-10T14:55:09.391Z,2.19
2023-05-10T14:56:09.326Z,2.17
2023-05-10T14:57:09.258Z,2.22
2023-05-10T14:58:09.182Z,2.29
2023-05-10T14:59:09.119Z,2.17
2023-05-10T15:00:09.048Z,2.06
2023-05-10T15:01:09.001Z,2.10
2023-05-10T15:02:08.924Z,2.22
2023-05-10T15:03:08.909Z,2.25
2023-05-10T15:04:08.767Z,2.13
2023-05-10T15:05:08.693Z,2.23
2023-05-10T15:06:08.630Z,2.34
2023-05-10T15:07:08.562Z,2.41
2023-05-10T15:08:08.506Z,2.52
2023-05-10T15:09:08.443Z,2.59
2023-05-10T15:10:08.393Z,2.74
2023-05-10T15:11:08.334Z,2.80
2023-05-10T15:12:08.280Z,2.75
2023-05-10T15:13:08.192Z,2.78
2023-05-10T15:14:08.133Z,2.88
2023-05-10T15:15:08.059Z,2.91
2023-05-10T15:16:08.036Z,3.07
2023-05-10T15:17:07.945Z,3.08
2023-05-10T15:18:07.956Z,3.27
2023-05-10T15:19:07.957Z,3.52
2023-05-10T15:20:07.756Z,3.75
2023-05-10T15:21:07.701Z,3.98
2023-05-10T15:22:07.652Z,3.91
2023-05-10T15:23:07.587Z,4.14
2023-05-10T15:24:07.511Z,4.33
2023-05-10T15:25:07.452Z,4.47
2023-05-10T15:26:07.431Z,4.64
2023-05-10T15:27:07.314Z,4.71
2023-05-10T15:28:07.259Z,5.03
2023-05-10T15:29:07.191Z,5.06
2023-05-10T15:30:07.134Z,4.99
2023-05-10T15:31:07.095Z,5.03
2023-05-10T15:32:07.010Z,4.81
2023-05-10T15:33:07.032Z,5.08
2023-05-10T15:34:06.875Z,5.01
2023-05-10T15:35:06.815Z,4.97
2023-05-10T15:36:06.748Z,5.22
2023-05-10T15:37:06.678Z,5.20
2023-05-10T15:38:06.619Z,5.34
2023-05-10T15:39:06.551Z,5.41
2023-05-10T15:40:06.516Z,5.43
2023-05-10T15:41:06.412Z,5.53
2023-05-10T15:42:06.359Z,5.73
2023-05-10T15:43:06.300Z,5.74
2023-05-10T15:44:06.232Z,5.87
2023-05-10T15:45:06.167Z,6.01
2023-05-10T15:46:06.116Z,6.20
2023-05-10T15:47:06.128Z,6.40
2023-05-10T15:48:06.075Z,6.59
2023-05-10T15:49:05.917Z,6.67
2023-05-10T15:50:05.844Z,6.65
2023-05-10T15:51:05.782Z,7.10
2023-05-10T15:52:05.711Z,7.03
2023-05-10T15:53:05.673Z,7.30
2023-05-10T15:54:07.508Z,7.14
2023-05-10T15:55:05.633Z,7.47
2023-05-10T15:56:05.568Z,7.93
2023-05-10T15:57:05.514Z,8.02
2023-05-10T15:58:05.433Z,7.89
2023-05-10T15:59:05.360Z,8.13
2023-05-10T16:00:05.288Z,8.23
2023-05-10T16:01:05.313Z,8.38
2023-05-10T16:02:05.180Z,8.26
2023-05-10T16:03:05.220Z,8.39
2023-05-10T16:04:05.012Z,8.32
2023-05-10T16:05:04.964Z,8.38
2023-05-10T16:06:04.874Z,8.47
2023-05-10T16:07:04.832Z,8.59
2023-05-10T16:08:04.736Z,8.71
2023-05-10T16:09:04.674Z,8.57
2023-05-10T16:10:04.580Z,8.65
2023-05-10T16:11:04.527Z,8.82
2023-05-10T16:12:04.441Z,8.81
2023-05-10T16:13:04.377Z,8.78
2023-05-10T16:14:05.672Z,8.98
2023-05-10T16:15:04.163Z,8.91
2023-05-10T16:16:04.084Z,9.07
2023-05-10T16:17:03.972Z,8.95
2023-05-10T16:18:03.884Z,8.89
2023-05-10T16:19:03.716Z,9.07
2023-05-10T16:20:03.597Z,9.08
2023-05-10T16:21:03.399Z,9.16
2023-05-10T16:22:03.264Z,9.14
2023-05-10T16:23:03.142Z,9.20
2023-05-10T16:24:03.022Z,8.92
2023-05-10T16:25:02.882Z,9.10
2023-05-10T16:26:02.771Z,9.07
2023-05-10T16:27:02.630Z,9.33
2023-05-10T16:28:02.516Z,9.04
2023-05-10T16:29:02.389Z,8.87
2023-05-10T16:30:02.320Z,9.11
2023-05-10T16:31:02.176Z,9.32
2023-05-10T16:32:02.002Z,9.07
2023-05-10T16:33:01.921Z,9.03
2023-05-10T16:34:01.749Z,8.94
2023-05-10T16:35:01.679Z,8.95
2023-05-10T16:36:01.487Z,8.88
2023-05-10T16:37:01.374Z,9.20
2023-05-10T16:38:01.275Z,9.09
2023-05-10T16:39:01.124Z,9.10
2023-05-10T16:40:00.996Z,9.01
2023-05-10T16:41:00.855Z,8.86
2023-05-10T16:42:00.735Z,9.07
2023-05-10T16:43:00.609Z,8.84
2023-05-10T16:44:00.473Z,8.94
2023-05-10T16:45:00.342Z,9.04
2023-05-10T16:46:00.295Z,9.14
2023-05-10T16:47:00.143Z,9.04
2023-05-10T16:48:00.056Z,8.90
2023-05-10T16:48:59.826Z,9.14
2023-05-10T16:49:59.740Z,8.90
2023-05-10T16:50:59.582Z,9.00
2023-05-10T16:51:59.448Z,8.87
2023-05-10T16:52:59.570Z,8.92
2023-05-10T16:53:59.199Z,8.81
2023-05-10T16:54:59.124Z,8.85
2023-05-10T16:55:59.070Z,8.75
2023-05-10T16:56:59.013Z,8.77
2023-05-10T16:57:58.959Z,8.80
2023-05-10T16:58:58.875Z,8.82
2023-05-10T16:59:58.811Z,8.87
2023-05-10T17:00:58.747Z,9.00
2023-05-10T17:01:58.764Z,8.81
2023-05-10T17:02:58.710Z,8.84
2023-05-10T17:03:58.715Z,8.86
2023-05-10T17:04:58.479Z,8.71
2023-05-10T17:05:58.652Z,8.72
2023-05-10T17:06:58.363Z,8.91
2023-05-10T17:07:58.282Z,8.67
2023-05-10T17:08:58.222Z,8.68
2023-05-10T17:09:58.148Z,8.61
2023-05-10T17:10:58.073Z,8.55
2023-05-10T17:11:58.024Z,8.69
2023-05-10T17:12:58.160Z,8.66
2023-05-10T17:13:57.877Z,8.60
2023-05-10T17:14:57.813Z,8.51
2023-05-10T17:15:57.912Z,8.51
2023-05-10T17:16:57.733Z,8.55
2023-05-10T17:17:57.670Z,8.51
2023-05-10T17:18:57.653Z,8.47
2023-05-10T17:19:57.494Z,8.54
2023-05-10T17:20:57.429Z,8.51
2023-05-10T17:21:57.359Z,8.29
2023-05-10T17:22:57.533Z,8.49
2023-05-10T17:23:57.230Z,8.42
2023-05-10T17:24:57.200Z,8.49
2023-05-10T17:25:58.070Z,8.42
2023-05-10T17:26:57.060Z,8.55
2023-05-10T17:27:56.985Z,8.29
2023-05-10T17:28:56.906Z,8.31
2023-05-10T17:29:56.836Z,8.34
2023-05-10T17:30:56.777Z,8.44
2023-05-10T17:31:56.804Z,8.17
2023-05-10T17:32:56.697Z,8.21
2023-05-10T17:33:56.575Z,8.23
2023-05-10T17:34:56.518Z,8.16
2023-05-10T17:35:56.437Z,8.12
2023-05-10T17:36:56.370Z,8.17
2023-05-10T17:37:56.311Z,8.15
2023-05-10T17:38:56.235Z,8.24
2023-05-10T17:39:56.173Z,8.13
2023-05-10T17:40:56.094Z,7.98
2023-05-10T17:41:56.034Z,8.08
2023-05-10T17:42:56.054Z,8.06
2023-05-10T17:43:55.906Z,8.11
2023-05-10T17:44:55.836Z,8.03
2023-05-10T17:45:55.828Z,7.88
2023-05-10T17:46:55.702Z,7.98
2023-05-10T17:47:55.693Z,7.93
2023-05-10T17:48:55.575Z,7.88
2023-05-10T17:49:55.500Z,7.88
2023-05-10T17:50:55.435Z,7.91
2023-05-10T17:51:55.379Z,7.75
2023-05-10T17:52:55.307Z,7.71
2023-05-10T17:53:55.242Z,7.89
2023-05-10T17:54:55.197Z,7.70
2023-05-10T17:55:55.122Z,7.81
2023-05-10T17:56:55.044Z,7.66
2023-05-10T17:57:55.016Z,7.74
2023-05-10T17:58:54.947Z,7.75
2023-05-10T17:59:54.875Z,7.77
2023-05-10T18:00:54.844Z,7.72
2023-05-10T18:01:54.741Z,7.55
2023-05-10T18:02:54.729Z,7.66
2023-05-10T18:03:54.614Z,7.52
2023-05-10T18:04:55.675Z,7.81
2023-05-10T18:05:54.549Z,7.51
2023-05-10T18:06:54.429Z,7.58
2023-05-10T18:07:54.364Z,7.62
2023-05-10T18:08:54.311Z,7.49
2023-05-10T18:09:54.225Z,7.45
2023-05-10T18:10:54.166Z,7.44
2023-05-10T18:11:54.098Z,7.32
2023-05-10T18:12:54.042Z,7.35
2023-05-10T18:13:53.969Z,7.37
2023-05-10T18:14:53.894Z,7.31
2023-05-10T18:15:53.834Z,7.25
2023-05-10T18:16:53.791Z,7.31
2023-05-10T18:17:53.742Z,7.15
2023-05-10T18:18:53.704Z,7.27
2023-05-10T18:19:53.609Z,7.18
2023-05-10T18:20:53.518Z,7.18
2023-05-10T18:21:53.462Z,7.19
2023-05-10T18:22:53.398Z,7.12
2023-05-10T18:23:53.331Z,7.14
2023-05-10T18:24:53.273Z,7.05
2023-05-10T18:25:53.203Z,7.15
2023-05-10T18:26:53.144Z,7.04
2023-05-10T18:27:53.076Z,7.09
2023-05-10T18:28:53.045Z,7.10
2023-05-10T18:29:52.949Z,7.02
2023-05-10T18:30:52.915Z,7.04
2023-05-10T18:31:52.824Z,6.91
2023-05-10T18:32:52.866Z,6.88
2023-05-10T18:33:52.696Z,6.90
2023-05-10T18:34:54.456Z,6.89
2023-05-10T18:35:52.502Z,6.76
2023-05-10T18:36:52.397Z,6.84
2023-05-10T18:37:52.249Z,6.75
2023-05-10T18:38:52.122Z,6.88
2023-05-10T18:39:51.984Z,6.82